Terminal Aerodrome Forecast
Issued by NWS

Home | Current Version | Previous Version | Text Only | Print | Product List | Glossary On
Versions: 1 2 3 4 5 6 7 8 9 10 11 12 13 14
669
FTUS43 KBIS 072331
TAFMOT
TAF
KMOT 072331Z 0800/0824 28029G40KT 2SM -SN BLSN OVC045
     FM080200 30018G28KT P6SM BKN025
     FM081500 29013KT P6SM OVC030
     FM082000 30011KT P6SM SCT030=

USA.gov is the U.S. government's official web portal to all federal, state and local government web resources and services.